sensor_id;sensor_type;location;lat;lon;timestamp;P1;durP1;ratioP1;P2;durP2;ratioP2
38037;SDS011;23843;51.320;12.340;2023-07-13T00:00:29;0.17;;;0.17;;
38037;SDS011;23843;51.320;12.340;2023-07-13T00:02:55;0.20;;;0.20;;
38037;SDS011;23843;51.320;12.340;2023-07-13T00:05:22;0.10;;;0.10;;
38037;SDS011;23843;51.320;12.340;2023-07-13T00:07:48;0.15;;;0.15;;
38037;SDS011;23843;51.320;12.340;2023-07-13T00:10:15;0.10;;;0.10;;
38037;SDS011;23843;51.320;12.340;2023-07-13T00:12:41;0.20;;;0.20;;
38037;SDS011;23843;51.320;12.340;2023-07-13T00:15:10;0.10;;;0.10;;
38037;SDS011;23843;51.320;12.340;2023-07-13T00:17:39;0.32;;;0.20;;
38037;SDS011;23843;51.320;12.340;2023-07-13T00:20:05;0.20;;;0.20;;
38037;SDS011;23843;51.320;12.340;2023-07-13T00:22:33;0.10;;;0.10;;
38037;SDS011;23843;51.320;12.340;2023-07-13T00:24:59;0.25;;;0.25;;
38037;SDS011;23843;51.320;12.340;2023-07-13T00:27:25;0.52;;;0.52;;
38037;SDS011;23843;51.320;12.340;2023-07-13T00:29:50;0.20;;;0.20;;
38037;SDS011;23843;51.320;12.340;2023-07-13T00:32:16;0.10;;;0.10;;
38037;SDS011;23843;51.320;12.340;2023-07-13T00:34:41;0.20;;;0.20;;
38037;SDS011;23843;51.320;12.340;2023-07-13T00:37:07;0.22;;;0.22;;
38037;SDS011;23843;51.320;12.340;2023-07-13T00:39:35;0.20;;;0.20;;
38037;SDS011;23843;51.320;12.340;2023-07-13T00:42:01;0.22;;;0.20;;
38037;SDS011;23843;51.320;12.340;2023-07-13T00:44:27;0.30;;;0.28;;
38037;SDS011;23843;51.320;12.340;2023-07-13T00:46:53;0.28;;;0.28;;
38037;SDS011;23843;51.320;12.340;2023-07-13T00:49:20;0.30;;;0.20;;
38037;SDS011;23843;51.320;12.340;2023-07-13T00:51:49;0.28;;;0.28;;
38037;SDS011;23843;51.320;12.340;2023-07-13T00:54:17;0.57;;;0.40;;
38037;SDS011;23843;51.320;12.340;2023-07-13T00:56:48;0.38;;;0.38;;
38037;SDS011;23843;51.320;12.340;2023-07-13T00:59:16;0.43;;;0.43;;
38037;SDS011;23843;51.320;12.340;2023-07-13T01:01:44;0.30;;;0.30;;
38037;SDS011;23843;51.320;12.340;2023-07-13T01:04:10;0.30;;;0.30;;
38037;SDS011;23843;51.320;12.340;2023-07-13T01:06:36;0.28;;;0.28;;
38037;SDS011;23843;51.320;12.340;2023-07-13T01:09:02;0.20;;;0.20;;
38037;SDS011;23843;51.320;12.340;2023-07-13T01:11:29;0.30;;;0.30;;
38037;SDS011;23843;51.320;12.340;2023-07-13T01:13:56;0.45;;;0.30;;
38037;SDS011;23843;51.320;12.340;2023-07-13T01:16:23;0.28;;;0.28;;
38037;SDS011;23843;51.320;12.340;2023-07-13T01:18:51;0.52;;;0.35;;
38037;SDS011;23843;51.320;12.340;2023-07-13T01:21:18;0.30;;;0.30;;
38037;SDS011;23843;51.320;12.340;2023-07-13T01:23:44;0.57;;;0.57;;
38037;SDS011;23843;51.320;12.340;2023-07-13T01:26:10;0.55;;;0.50;;
38037;SDS011;23843;51.320;12.340;2023-07-13T01:28:36;0.40;;;0.40;;
38037;SDS011;23843;51.320;12.340;2023-07-13T01:31:02;0.20;;;0.20;;
38037;SDS011;23843;51.320;12.340;2023-07-13T01:33:29;0.20;;;0.20;;
38037;SDS011;23843;51.320;12.340;2023-07-13T01:35:55;0.63;;;0.40;;
38037;SDS011;23843;51.320;12.340;2023-07-13T01:38:23;0.43;;;0.30;;
38037;SDS011;23843;51.320;12.340;2023-07-13T01:40:50;0.85;;;0.85;;
38037;SDS011;23843;51.320;12.340;2023-07-13T01:43:16;0.20;;;0.20;;
38037;SDS011;23843;51.320;12.340;2023-07-13T01:45:42;0.20;;;0.20;;
38037;SDS011;23843;51.320;12.340;2023-07-13T01:48:08;0.13;;;0.13;;
38037;SDS011;23843;51.320;12.340;2023-07-13T01:50:34;0.43;;;0.30;;
38037;SDS011;23843;51.320;12.340;2023-07-13T01:53:00;0.20;;;0.20;;
38037;SDS011;23843;51.320;12.340;2023-07-13T01:55:30;0.50;;;0.50;;
38037;SDS011;23843;51.320;12.340;2023-07-13T01:57:56;0.30;;;0.30;;
38037;SDS011;23843;51.320;12.340;2023-07-13T02:00:22;0.25;;;0.25;;
38037;SDS011;23843;51.320;12.340;2023-07-13T02:02:47;0.22;;;0.22;;
38037;SDS011;23843;51.320;12.340;2023-07-13T02:05:13;0.20;;;0.20;;
38037;SDS011;23843;51.320;12.340;2023-07-13T02:07:39;0.80;;;0.80;;
38037;SDS011;23843;51.320;12.340;2023-07-13T02:10:05;0.25;;;0.20;;
38037;SDS011;23843;51.320;12.340;2023-07-13T02:12:33;0.20;;;0.20;;
38037;SDS011;23843;51.320;12.340;2023-07-13T02:14:59;0.52;;;0.52;;
38037;SDS011;23843;51.320;12.340;2023-07-13T02:17:25;0.28;;;0.28;;
38037;SDS011;23843;51.320;12.340;2023-07-13T02:19:50;0.40;;;0.30;;
38037;SDS011;23843;51.320;12.340;2023-07-13T02:22:16;0.55;;;0.30;;
38037;SDS011;23843;51.320;12.340;2023-07-13T02:24:42;0.20;;;0.20;;
38037;SDS011;23843;51.320;12.340;2023-07-13T02:27:08;0.10;;;0.10;;
38037;SDS011;23843;51.320;12.340;2023-07-13T02:29:35;0.20;;;0.20;;
38037;SDS011;23843;51.320;12.340;2023-07-13T02:32:00;0.20;;;0.20;;
38037;SDS011;23843;51.320;12.340;2023-07-13T02:34:26;0.20;;;0.20;;
38037;SDS011;23843;51.320;12.340;2023-07-13T02:36:52;0.70;;;0.70;;
38037;SDS011;23843;51.320;12.340;2023-07-13T02:39:17;0.30;;;0.30;;
38037;SDS011;23843;51.320;12.340;2023-07-13T02:41:43;0.30;;;0.30;;
38037;SDS011;23843;51.320;12.340;2023-07-13T02:44:09;0.30;;;0.22;;
38037;SDS011;23843;51.320;12.340;2023-07-13T02:46:36;0.20;;;0.20;;
38037;SDS011;23843;51.320;12.340;2023-07-13T02:49:02;0.30;;;0.30;;
38037;SDS011;23843;51.320;12.340;2023-07-13T02:51:28;0.50;;;0.50;;
38037;SDS011;23843;51.320;12.340;2023-07-13T02:53:54;0.25;;;0.25;;
38037;SDS011;23843;51.320;12.340;2023-07-13T02:56:21;0.20;;;0.20;;
38037;SDS011;23843;51.320;12.340;2023-07-13T02:58:49;0.10;;;0.10;;
38037;SDS011;23843;51.320;12.340;2023-07-13T03:01:15;0.40;;;0.40;;
38037;SDS011;23843;51.320;12.340;2023-07-13T03:03:42;1.08;;;0.40;;
38037;SDS011;23843;51.320;12.340;2023-07-13T03:06:08;0.60;;;0.35;;
38037;SDS011;23843;51.320;12.340;2023-07-13T03:08:34;0.17;;;0.17;;
38037;SDS011;23843;51.320;12.340;2023-07-13T03:11:00;0.20;;;0.20;;
38037;SDS011;23843;51.320;12.340;2023-07-13T03:13:26;0.75;;;0.70;;
38037;SDS011;23843;51.320;12.340;2023-07-13T03:15:52;0.20;;;0.20;;
38037;SDS011;23843;51.320;12.340;2023-07-13T03:18:18;0.40;;;0.40;;
38037;SDS011;23843;51.320;12.340;2023-07-13T03:20:45;0.35;;;0.30;;
38037;SDS011;23843;51.320;12.340;2023-07-13T03:23:11;0.82;;;0.50;;
38037;SDS011;23843;51.320;12.340;2023-07-13T03:25:37;0.40;;;0.40;;
38037;SDS011;23843;51.320;12.340;2023-07-13T03:28:03;0.30;;;0.30;;
38037;SDS011;23843;51.320;12.340;2023-07-13T03:30:29;0.30;;;0.30;;
38037;SDS011;23843;51.320;12.340;2023-07-13T03:32:55;0.60;;;0.60;;
38037;SDS011;23843;51.320;12.340;2023-07-13T03:35:21;0.50;;;0.50;;
38037;SDS011;23843;51.320;12.340;2023-07-13T03:37:48;0.30;;;0.30;;
38037;SDS011;23843;51.320;12.340;2023-07-13T03:40:14;0.65;;;0.40;;
38037;SDS011;23843;51.320;12.340;2023-07-13T03:42:41;0.40;;;0.40;;
38037;SDS011;23843;51.320;12.340;2023-07-13T03:45:07;0.35;;;0.30;;
38037;SDS011;23843;51.320;12.340;2023-07-13T03:47:34;0.38;;;0.30;;
38037;SDS011;23843;51.320;12.340;2023-07-13T03:50:02;0.25;;;0.25;;
38037;SDS011;23843;51.320;12.340;2023-07-13T03:52:32;0.20;;;0.20;;
38037;SDS011;23843;51.320;12.340;2023-07-13T03:54:59;0.22;;;0.22;;
38037;SDS011;23843;51.320;12.340;2023-07-13T03:57:27;0.50;;;0.30;;
38037;SDS011;23843;51.320;12.340;2023-07-13T03:59:52;0.20;;;0.20;;
38037;SDS011;23843;51.320;12.340;2023-07-13T04:02:18;0.30;;;0.30;;
38037;SDS011;23843;51.320;12.340;2023-07-13T04:04:44;0.17;;;0.17;;
38037;SDS011;23843;51.320;12.340;2023-07-13T04:07:09;0.22;;;0.22;;
38037;SDS011;23843;51.320;12.340;2023-07-13T04:09:35;0.30;;;0.30;;
38037;SDS011;23843;51.320;12.340;2023-07-13T04:12:03;0.57;;;0.28;;
38037;SDS011;23843;51.320;12.340;2023-07-13T04:14:29;0.40;;;0.40;;
38037;SDS011;23843;51.320;12.340;2023-07-13T04:16:55;0.40;;;0.30;;
38037;SDS011;23843;51.320;12.340;2023-07-13T04:19:20;0.45;;;0.22;;
38037;SDS011;23843;51.320;12.340;2023-07-13T04:21:46;0.30;;;0.20;;
38037;SDS011;23843;51.320;12.340;2023-07-13T04:24:12;0.50;;;0.50;;
38037;SDS011;23843;51.320;12.340;2023-07-13T04:26:41;0.30;;;0.30;;
38037;SDS011;23843;51.320;12.340;2023-07-13T04:29:08;0.73;;;0.73;;
38037;SDS011;23843;51.320;12.340;2023-07-13T04:31:34;0.47;;;0.30;;
38037;SDS011;23843;51.320;12.340;2023-07-13T04:34:00;0.80;;;0.30;;
38037;SDS011;23843;51.320;12.340;2023-07-13T04:36:26;0.47;;;0.32;;
38037;SDS011;23843;51.320;12.340;2023-07-13T04:38:52;0.40;;;0.40;;
38037;SDS011;23843;51.320;12.340;2023-07-13T04:41:17;0.57;;;0.50;;
38037;SDS011;23843;51.320;12.340;2023-07-13T04:43:43;0.50;;;0.50;;
38037;SDS011;23843;51.320;12.340;2023-07-13T04:46:11;0.50;;;0.50;;
38037;SDS011;23843;51.320;12.340;2023-07-13T04:48:39;0.60;;;0.60;;
38037;SDS011;23843;51.320;12.340;2023-07-13T04:51:09;0.73;;;0.50;;
38037;SDS011;23843;51.320;12.340;2023-07-13T04:53:35;0.73;;;0.50;;
38037;SDS011;23843;51.320;12.340;2023-07-13T04:56:01;0.65;;;0.50;;
38037;SDS011;23843;51.320;12.340;2023-07-13T04:58:31;0.63;;;0.52;;
38037;SDS011;23843;51.320;12.340;2023-07-13T05:01:01;0.50;;;0.50;;
38037;SDS011;23843;51.320;12.340;2023-07-13T05:03:30;1.15;;;0.65;;
38037;SDS011;23843;51.320;12.340;2023-07-13T05:05:56;1.52;;;0.90;;
38037;SDS011;23843;51.320;12.340;2023-07-13T05:08:23;0.80;;;0.80;;
38037;SDS011;23843;51.320;12.340;2023-07-13T05:10:49;1.20;;;0.80;;
38037;SDS011;23843;51.320;12.340;2023-07-13T05:13:15;1.13;;;1.10;;
38037;SDS011;23843;51.320;12.340;2023-07-13T05:15:41;0.80;;;0.63;;
38037;SDS011;23843;51.320;12.340;2023-07-13T05:18:06;1.20;;;0.98;;
38037;SDS011;23843;51.320;12.340;2023-07-13T05:20:34;1.15;;;1.05;;
38037;SDS011;23843;51.320;12.340;2023-07-13T05:22:59;0.80;;;0.80;;
38037;SDS011;23843;51.320;12.340;2023-07-13T05:25:25;0.95;;;0.80;;
38037;SDS011;23843;51.320;12.340;2023-07-13T05:27:51;0.88;;;0.80;;
38037;SDS011;23843;51.320;12.340;2023-07-13T05:30:18;0.60;;;0.60;;
38037;SDS011;23843;51.320;12.340;2023-07-13T05:32:43;0.70;;;0.70;;
38037;SDS011;23843;51.320;12.340;2023-07-13T05:35:09;0.90;;;0.77;;
38037;SDS011;23843;51.320;12.340;2023-07-13T05:37:36;2.08;;;1.10;;
38037;SDS011;23843;51.320;12.340;2023-07-13T05:40:02;1.33;;;1.10;;
38037;SDS011;23843;51.320;12.340;2023-07-13T05:42:29;1.10;;;1.00;;
38037;SDS011;23843;51.320;12.340;2023-07-13T05:44:54;0.88;;;0.80;;
38037;SDS011;23843;51.320;12.340;2023-07-13T05:47:20;0.98;;;0.70;;
38037;SDS011;23843;51.320;12.340;2023-07-13T05:49:48;1.40;;;1.30;;
38037;SDS011;23843;51.320;12.340;2023-07-13T05:52:14;0.60;;;0.60;;
38037;SDS011;23843;51.320;12.340;2023-07-13T05:54:41;0.60;;;0.60;;
38037;SDS011;23843;51.320;12.340;2023-07-13T05:57:08;0.60;;;0.60;;
38037;SDS011;23843;51.320;12.340;2023-07-13T05:59:35;1.17;;;0.85;;
38037;SDS011;23843;51.320;12.340;2023-07-13T06:02:00;1.15;;;0.95;;
38037;SDS011;23843;51.320;12.340;2023-07-13T06:04:26;1.48;;;1.00;;
38037;SDS011;23843;51.320;12.340;2023-07-13T06:06:51;1.00;;;0.95;;
38037;SDS011;23843;51.320;12.340;2023-07-13T06:09:17;0.70;;;0.70;;
38037;SDS011;23843;51.320;12.340;2023-07-13T06:11:44;1.60;;;1.30;;
38037;SDS011;23843;51.320;12.340;2023-07-13T06:14:10;2.15;;;0.80;;
38037;SDS011;23843;51.320;12.340;2023-07-13T06:16:39;1.00;;;0.90;;
38037;SDS011;23843;51.320;12.340;2023-07-13T06:19:05;1.25;;;1.15;;
38037;SDS011;23843;51.320;12.340;2023-07-13T06:21:30;1.58;;;1.00;;
38037;SDS011;23843;51.320;12.340;2023-07-13T06:23:56;1.15;;;1.05;;
38037;SDS011;23843;51.320;12.340;2023-07-13T06:26:22;1.00;;;1.00;;
38037;SDS011;23843;51.320;12.340;2023-07-13T06:28:49;0.70;;;0.70;;
38037;SDS011;23843;51.320;12.340;2023-07-13T06:31:15;2.13;;;1.10;;
38037;SDS011;23843;51.320;12.340;2023-07-13T06:33:41;1.08;;;1.00;;
38037;SDS011;23843;51.320;12.340;2023-07-13T06:36:08;1.00;;;1.00;;
38037;SDS011;23843;51.320;12.340;2023-07-13T06:38:34;1.20;;;1.10;;
38037;SDS011;23843;51.320;12.340;2023-07-13T06:41:00;1.20;;;1.10;;
38037;SDS011;23843;51.320;12.340;2023-07-13T06:43:27;1.40;;;1.30;;
38037;SDS011;23843;51.320;12.340;2023-07-13T06:45:54;1.40;;;1.30;;
38037;SDS011;23843;51.320;12.340;2023-07-13T06:48:21;1.60;;;1.50;;
38037;SDS011;23843;51.320;12.340;2023-07-13T06:50:47;1.25;;;1.15;;
38037;SDS011;23843;51.320;12.340;2023-07-13T06:53:14;1.40;;;1.30;;
38037;SDS011;23843;51.320;12.340;2023-07-13T06:55:40;1.95;;;1.65;;
38037;SDS011;23843;51.320;12.340;2023-07-13T06:58:06;1.70;;;1.60;;
38037;SDS011;23843;51.320;12.340;2023-07-13T07:00:31;1.70;;;1.60;;
38037;SDS011;23843;51.320;12.340;2023-07-13T07:02:59;2.60;;;1.90;;
38037;SDS011;23843;51.320;12.340;2023-07-13T07:05:27;1.80;;;1.70;;
38037;SDS011;23843;51.320;12.340;2023-07-13T07:07:54;1.75;;;1.65;;
38037;SDS011;23843;51.320;12.340;2023-07-13T07:10:21;1.90;;;1.80;;
38037;SDS011;23843;51.320;12.340;2023-07-13T07:12:50;1.70;;;1.60;;
38037;SDS011;23843;51.320;12.340;2023-07-13T07:15:16;2.28;;;2.10;;
38037;SDS011;23843;51.320;12.340;2023-07-13T07:17:43;1.98;;;1.88;;
38037;SDS011;23843;51.320;12.340;2023-07-13T07:20:12;2.25;;;2.05;;
38037;SDS011;23843;51.320;12.340;2023-07-13T07:22:38;1.70;;;1.60;;
38037;SDS011;23843;51.320;12.340;2023-07-13T07:25:04;1.48;;;1.40;;
38037;SDS011;23843;51.320;12.340;2023-07-13T07:27:30;1.45;;;1.35;;
38037;SDS011;23843;51.320;12.340;2023-07-13T07:29:58;1.30;;;1.20;;
38037;SDS011;23843;51.320;12.340;2023-07-13T07:32:25;1.25;;;1.15;;
38037;SDS011;23843;51.320;12.340;2023-07-13T07:34:51;1.00;;;1.00;;
38037;SDS011;23843;51.320;12.340;2023-07-13T07:37:18;1.30;;;1.15;;
38037;SDS011;23843;51.320;12.340;2023-07-13T07:39:44;1.45;;;1.40;;
38037;SDS011;23843;51.320;12.340;2023-07-13T07:42:10;1.50;;;1.40;;
38037;SDS011;23843;51.320;12.340;2023-07-13T07:44:36;1.80;;;1.70;;
38037;SDS011;23843;51.320;12.340;2023-07-13T07:47:01;2.30;;;1.13;;
38037;SDS011;23843;51.320;12.340;2023-07-13T07:49:27;1.20;;;1.20;;
38037;SDS011;23843;51.320;12.340;2023-07-13T07:51:53;1.27;;;1.17;;
38037;SDS011;23843;51.320;12.340;2023-07-13T07:54:22;1.75;;;1.20;;
38037;SDS011;23843;51.320;12.340;2023-07-13T07:56:47;1.00;;;1.00;;
38037;SDS011;23843;51.320;12.340;2023-07-13T07:59:13;0.93;;;0.82;;
38037;SDS011;23843;51.320;12.340;2023-07-13T08:01:38;0.90;;;0.90;;
38037;SDS011;23843;51.320;12.340;2023-07-13T08:04:04;0.70;;;0.70;;
38037;SDS011;23843;51.320;12.340;2023-07-13T08:06:31;0.80;;;0.80;;
38037;SDS011;23843;51.320;12.340;2023-07-13T08:08:56;0.90;;;0.90;;
38037;SDS011;23843;51.320;12.340;2023-07-13T08:11:23;0.88;;;0.80;;
38037;SDS011;23843;51.320;12.340;2023-07-13T08:13:49;1.15;;;1.02;;
38037;SDS011;23843;51.320;12.340;2023-07-13T08:16:15;0.90;;;0.90;;
38037;SDS011;23843;51.320;12.340;2023-07-13T08:18:41;0.95;;;0.80;;
38037;SDS011;23843;51.320;12.340;2023-07-13T08:21:07;0.90;;;0.90;;
38037;SDS011;23843;51.320;12.340;2023-07-13T08:23:34;0.70;;;0.70;;
38037;SDS011;23843;51.320;12.340;2023-07-13T08:26:00;1.60;;;1.00;;
38037;SDS011;23843;51.320;12.340;2023-07-13T08:28:28;0.80;;;0.70;;
38037;SDS011;23843;51.320;12.340;2023-07-13T08:30:54;0.93;;;0.73;;
38037;SDS011;23843;51.320;12.340;2023-07-13T08:33:21;1.20;;;1.00;;
38037;SDS011;23843;51.320;12.340;2023-07-13T08:35:47;1.05;;;0.93;;
38037;SDS011;23843;51.320;12.340;2023-07-13T08:38:14;0.90;;;0.90;;
38037;SDS011;23843;51.320;12.340;2023-07-13T08:40:40;1.10;;;1.00;;
38037;SDS011;23843;51.320;12.340;2023-07-13T08:43:08;1.10;;;1.00;;
38037;SDS011;23843;51.320;12.340;2023-07-13T08:45:42;0.70;;;0.70;;
38037;SDS011;23843;51.320;12.340;2023-07-13T08:48:13;1.65;;;1.02;;
38037;SDS011;23843;51.320;12.340;2023-07-13T08:50:46;1.30;;;0.80;;
38037;SDS011;23843;51.320;12.340;2023-07-13T08:53:16;0.88;;;0.88;;
38037;SDS011;23843;51.320;12.340;2023-07-13T08:55:44;1.20;;;1.10;;
38037;SDS011;23843;51.320;12.340;2023-07-13T08:58:10;0.93;;;0.90;;
38037;SDS011;23843;51.320;12.340;2023-07-13T09:00:40;1.02;;;1.02;;
38037;SDS011;23843;51.320;12.340;2023-07-13T09:03:16;1.60;;;1.50;;
38037;SDS011;23843;51.320;12.340;2023-07-13T09:05:48;1.35;;;1.25;;
38037;SDS011;23843;51.320;12.340;2023-07-13T09:08:22;1.70;;;1.60;;
38037;SDS011;23843;51.320;12.340;2023-07-13T09:11:05;2.08;;;1.98;;
38037;SDS011;23843;51.320;12.340;2023-07-13T09:13:43;1.70;;;1.60;;
38037;SDS011;23843;51.320;12.340;2023-07-13T09:16:17;1.50;;;1.40;;
38037;SDS011;23843;51.320;12.340;2023-07-13T09:18:45;1.50;;;1.40;;
38037;SDS011;23843;51.320;12.340;2023-07-13T09:21:15;1.45;;;1.35;;
38037;SDS011;23843;51.320;12.340;2023-07-13T09:23:45;1.40;;;1.30;;
38037;SDS011;23843;51.320;12.340;2023-07-13T09:26:12;1.63;;;1.52;;
38037;SDS011;23843;51.320;12.340;2023-07-13T09:28:43;2.10;;;2.00;;
38037;SDS011;23843;51.320;12.340;2023-07-13T09:31:11;2.20;;;2.10;;
38037;SDS011;23843;51.320;12.340;2023-07-13T09:33:41;2.30;;;2.20;;
38037;SDS011;23843;51.320;12.340;2023-07-13T09:36:18;2.50;;;2.40;;
38037;SDS011;23843;51.320;12.340;2023-07-13T09:38:46;2.40;;;2.30;;
38037;SDS011;23843;51.320;12.340;2023-07-13T09:41:16;2.10;;;2.00;;
38037;SDS011;23843;51.320;12.340;2023-07-13T09:44:06;1.80;;;1.70;;
38037;SDS011;23843;51.320;12.340;2023-07-13T09:46:33;1.42;;;1.33;;
38037;SDS011;23843;51.320;12.340;2023-07-13T09:49:00;1.40;;;1.30;;
38037;SDS011;23843;51.320;12.340;2023-07-13T09:51:25;1.13;;;1.02;;
38037;SDS011;23843;51.320;12.340;2023-07-13T09:53:51;0.82;;;0.82;;
38037;SDS011;23843;51.320;12.340;2023-07-13T09:56:20;1.20;;;1.10;;
38037;SDS011;23843;51.320;12.340;2023-07-13T09:58:47;0.80;;;0.70;;
38037;SDS011;23843;51.320;12.340;2023-07-13T10:01:12;0.93;;;0.90;;
38037;SDS011;23843;51.320;12.340;2023-07-13T10:03:38;1.15;;;0.77;;
38037;SDS011;23843;51.320;12.340;2023-07-13T10:06:10;0.88;;;0.70;;
38037;SDS011;23843;51.320;12.340;2023-07-13T10:08:38;0.57;;;0.57;;
38037;SDS011;23843;51.320;12.340;2023-07-13T10:11:08;0.82;;;0.70;;
38037;SDS011;23843;51.320;12.340;2023-07-13T10:13:36;1.05;;;0.80;;
38037;SDS011;23843;51.320;12.340;2023-07-13T10:16:04;0.98;;;0.80;;
38037;SDS011;23843;51.320;12.340;2023-07-13T10:18:35;1.83;;;1.10;;
38037;SDS011;23843;51.320;12.340;2023-07-13T10:21:13;0.80;;;0.73;;
38037;SDS011;23843;51.320;12.340;2023-07-13T10:23:42;1.20;;;0.90;;
38037;SDS011;23843;51.320;12.340;2023-07-13T10:26:11;1.35;;;0.90;;
38037;SDS011;23843;51.320;12.340;2023-07-13T10:28:42;1.45;;;1.10;;
38037;SDS011;23843;51.320;12.340;2023-07-13T10:31:11;1.45;;;0.80;;
38037;SDS011;23843;51.320;12.340;2023-07-13T10:33:39;0.65;;;0.60;;
38037;SDS011;23843;51.320;12.340;2023-07-13T10:36:09;0.80;;;0.60;;
38037;SDS011;23843;51.320;12.340;2023-07-13T10:38:43;0.73;;;0.73;;
38037;SDS011;23843;51.320;12.340;2023-07-13T10:41:10;1.73;;;1.10;;
38037;SDS011;23843;51.320;12.340;2023-07-13T10:43:41;0.50;;;0.50;;
38037;SDS011;23843;51.320;12.340;2023-07-13T10:46:10;2.08;;;1.00;;
38037;SDS011;23843;51.320;12.340;2023-07-13T10:48:38;1.00;;;1.00;;
38037;SDS011;23843;51.320;12.340;2023-07-13T10:51:05;1.05;;;0.73;;
38037;SDS011;23843;51.320;12.340;2023-07-13T10:53:34;0.70;;;0.70;;
38037;SDS011;23843;51.320;12.340;2023-07-13T10:56:03;0.57;;;0.50;;
38037;SDS011;23843;51.320;12.340;2023-07-13T10:58:32;0.70;;;0.70;;
38037;SDS011;23843;51.320;12.340;2023-07-13T11:01:03;0.52;;;0.50;;
38037;SDS011;23843;51.320;12.340;2023-07-13T11:03:33;0.70;;;0.65;;
38037;SDS011;23843;51.320;12.340;2023-07-13T11:06:04;0.70;;;0.70;;
38037;SDS011;23843;51.320;12.340;2023-07-13T11:08:35;0.50;;;0.50;;
38037;SDS011;23843;51.320;12.340;2023-07-13T11:11:03;0.47;;;0.47;;
38037;SDS011;23843;51.320;12.340;2023-07-13T11:13:36;0.52;;;0.50;;
38037;SDS011;23843;51.320;12.340;2023-07-13T11:16:32;0.60;;;0.50;;
38037;SDS011;23843;51.320;12.340;2023-07-13T11:22:09;1.00;;;1.00;;
38037;SDS011;23843;51.320;12.340;2023-07-13T11:24:52;0.50;;;0.50;;
38037;SDS011;23843;51.320;12.340;2023-07-13T11:27:33;1.88;;;0.80;;
38037;SDS011;23843;51.320;12.340;2023-07-13T11:30:07;0.50;;;0.50;;
38037;SDS011;23843;51.320;12.340;2023-07-13T11:32:49;0.60;;;0.60;;
38037;SDS011;23843;51.320;12.340;2023-07-13T11:35:18;0.50;;;0.50;;
38037;SDS011;23843;51.320;12.340;2023-07-13T11:37:47;0.60;;;0.50;;
38037;SDS011;23843;51.320;12.340;2023-07-13T11:40:15;0.50;;;0.50;;
38037;SDS011;23843;51.320;12.340;2023-07-13T11:42:41;0.63;;;0.47;;
38037;SDS011;23843;51.320;12.340;2023-07-13T11:45:14;0.55;;;0.55;;
38037;SDS011;23843;51.320;12.340;2023-07-13T11:47:45;0.63;;;0.60;;
38037;SDS011;23843;51.320;12.340;2023-07-13T11:50:17;0.50;;;0.50;;
38037;SDS011;23843;51.320;12.340;2023-07-13T11:52:44;0.50;;;0.50;;
38037;SDS011;23843;51.320;12.340;2023-07-13T11:55:13;0.80;;;0.80;;
38037;SDS011;23843;51.320;12.340;2023-07-13T11:57:44;0.90;;;0.90;;
38037;SDS011;23843;51.320;12.340;2023-07-13T12:00:12;0.63;;;0.57;;
38037;SDS011;23843;51.320;12.340;2023-07-13T12:02:41;0.85;;;0.85;;
38037;SDS011;23843;51.320;12.340;2023-07-13T12:05:09;1.17;;;1.08;;
38037;SDS011;23843;51.320;12.340;2023-07-13T12:07:38;1.00;;;0.70;;
38037;SDS011;23843;51.320;12.340;2023-07-13T12:10:13;0.50;;;0.50;;
38037;SDS011;23843;51.320;12.340;2023-07-13T12:12:48;0.60;;;0.60;;
38037;SDS011;23843;51.320;12.340;2023-07-13T12:15:21;0.60;;;0.60;;
38037;SDS011;23843;51.320;12.340;2023-07-13T12:17:47;0.60;;;0.60;;
38037;SDS011;23843;51.320;12.340;2023-07-13T12:20:19;0.50;;;0.50;;
38037;SDS011;23843;51.320;12.340;2023-07-13T12:22:48;1.80;;;0.60;;
38037;SDS011;23843;51.320;12.340;2023-07-13T12:25:15;0.70;;;0.70;;
38037;SDS011;23843;51.320;12.340;2023-07-13T12:27:43;0.40;;;0.40;;
38037;SDS011;23843;51.320;12.340;2023-07-13T12:32:59;0.40;;;0.40;;
38037;SDS011;23843;51.320;12.340;2023-07-13T12:35:27;0.70;;;0.70;;
38037;SDS011;23843;51.320;12.340;2023-07-13T12:37:55;0.98;;;0.52;;
38037;SDS011;23843;51.320;12.340;2023-07-13T12:40:24;0.47;;;0.47;;
38037;SDS011;23843;51.320;12.340;2023-07-13T12:42:55;0.70;;;0.63;;
38037;SDS011;23843;51.320;12.340;2023-07-13T12:45:25;0.57;;;0.50;;
38037;SDS011;23843;51.320;12.340;2023-07-13T12:47:53;0.50;;;0.50;;
38037;SDS011;23843;51.320;12.340;2023-07-13T12:50:22;0.65;;;0.65;;
38037;SDS011;23843;51.320;12.340;2023-07-13T12:52:50;1.00;;;0.90;;
38037;SDS011;23843;51.320;12.340;2023-07-13T12:55:18;0.65;;;0.65;;
38037;SDS011;23843;51.320;12.340;2023-07-13T12:57:47;0.70;;;0.70;;
38037;SDS011;23843;51.320;12.340;2023-07-13T13:00:21;0.60;;;0.60;;
38037;SDS011;23843;51.320;12.340;2023-07-13T13:02:49;0.40;;;0.40;;
38037;SDS011;23843;51.320;12.340;2023-07-13T13:05:16;0.60;;;0.60;;
38037;SDS011;23843;51.320;12.340;2023-07-13T13:07:42;0.50;;;0.50;;
38037;SDS011;23843;51.320;12.340;2023-07-13T13:10:14;0.70;;;0.70;;
38037;SDS011;23843;51.320;12.340;2023-07-13T13:12:42;0.70;;;0.68;;
38037;SDS011;23843;51.320;12.340;2023-07-13T13:15:07;0.50;;;0.50;;
38037;SDS011;23843;51.320;12.340;2023-07-13T13:17:35;0.60;;;0.60;;
38037;SDS011;23843;51.320;12.340;2023-07-13T13:20:00;0.40;;;0.40;;
38037;SDS011;23843;51.320;12.340;2023-07-13T13:22:26;0.60;;;0.60;;
38037;SDS011;23843;51.320;12.340;2023-07-13T13:24:52;0.60;;;0.60;;
38037;SDS011;23843;51.320;12.340;2023-07-13T13:27:18;0.40;;;0.40;;
38037;SDS011;23843;51.320;12.340;2023-07-13T13:29:46;0.40;;;0.40;;
38037;SDS011;23843;51.320;12.340;2023-07-13T13:32:13;0.52;;;0.52;;
38037;SDS011;23843;51.320;12.340;2023-07-13T13:34:41;0.50;;;0.50;;
38037;SDS011;23843;51.320;12.340;2023-07-13T13:37:10;0.50;;;0.50;;
38037;SDS011;23843;51.320;12.340;2023-07-13T13:39:43;0.45;;;0.40;;
38037;SDS011;23843;51.320;12.340;2023-07-13T13:42:09;0.52;;;0.52;;
38037;SDS011;23843;51.320;12.340;2023-07-13T13:44:35;0.40;;;0.40;;
38037;SDS011;23843;51.320;12.340;2023-07-13T13:47:01;0.52;;;0.52;;
38037;SDS011;23843;51.320;12.340;2023-07-13T13:49:28;2.15;;;0.60;;
38037;SDS011;23843;51.320;12.340;2023-07-13T13:51:57;0.32;;;0.32;;
38037;SDS011;23843;51.320;12.340;2023-07-13T13:54:23;0.40;;;0.40;;
38037;SDS011;23843;51.320;12.340;2023-07-13T13:56:49;0.50;;;0.40;;
38037;SDS011;23843;51.320;12.340;2023-07-13T13:59:16;0.60;;;0.50;;
38037;SDS011;23843;51.320;12.340;2023-07-13T14:01:43;0.38;;;0.38;;
38037;SDS011;23843;51.320;12.340;2023-07-13T14:04:11;0.50;;;0.50;;
38037;SDS011;23843;51.320;12.340;2023-07-13T14:06:40;0.40;;;0.40;;
38037;SDS011;23843;51.320;12.340;2023-07-13T14:09:08;0.50;;;0.50;;
38037;SDS011;23843;51.320;12.340;2023-07-13T14:11:35;0.50;;;0.50;;
38037;SDS011;23843;51.320;12.340;2023-07-13T14:14:01;0.40;;;0.40;;
38037;SDS011;23843;51.320;12.340;2023-07-13T14:16:29;0.40;;;0.40;;
38037;SDS011;23843;51.320;12.340;2023-07-13T14:18:55;0.43;;;0.38;;
38037;SDS011;23843;51.320;12.340;2023-07-13T14:21:21;0.85;;;0.52;;
38037;SDS011;23843;51.320;12.340;2023-07-13T14:23:48;0.60;;;0.60;;
38037;SDS011;23843;51.320;12.340;2023-07-13T14:26:16;0.68;;;0.57;;
38037;SDS011;23843;51.320;12.340;2023-07-13T14:28:44;0.60;;;0.60;;
38037;SDS011;23843;51.320;12.340;2023-07-13T14:31:13;0.60;;;0.60;;
38037;SDS011;23843;51.320;12.340;2023-07-13T14:33:40;0.60;;;0.60;;
38037;SDS011;23843;51.320;12.340;2023-07-13T14:36:12;0.50;;;0.50;;
38037;SDS011;23843;51.320;12.340;2023-07-13T14:38:48;0.52;;;0.50;;
38037;SDS011;23843;51.320;12.340;2023-07-13T14:41:35;0.57;;;0.57;;